Time;durP1;ratioP1;P1;durP2;ratioP2;P2;SDS_P1;SDS_P2;PMS_P1;PMS_P2;Temp;Humidity;BMP_temperature;BMP_pressure;BME280_temperature;BME280_humidity;BME280_pressure;Samples;Min_cycle;Max_cycle;Signal;HPM_P1;HPM_P2
2021/04/25 00:20:47;;;;;;;;;;;;;;;;;;;;;
2021/04/25 00:24:26;;;;;;;;;;;;;;;;;;;;;
2021/04/25 00:31:41;;;;;;;33.70;16.35;;;4.20;99.90;;;;;;6240566;23;20371;-96
2021/04/25 01:34:45;;;;;;;30.10;17.35;;;3.20;99.90;;;;;;6300331;22;20378;-94
2021/04/25 01:38:08;;;;;;;33.38;16.90;;;3.20;99.90;;;;;;6269624;22;20731;-94
2021/04/25 01:41:03;;;;;;;29.92;17.20;;;3.10;99.90;;;;;;6308032;22;20386;-95
2021/04/25 01:43:47;;;;;;;32.00;17.10;;;3.10;99.90;;;;;;6307335;22;20440;-94
2021/04/25 01:46:27;;;;;;;;;;;;;;;;;;;;;
2021/04/25 01:49:14;;;;;;;34.83;17.42;;;3.00;99.90;;;;;;6322330;22;20370;-94
2021/04/25 01:51:56;;;;;;;32.10;17.13;;;3.00;99.90;;;;;;6333953;22;20358;-94
2021/04/25 01:54:27;;;;;;;31.42;16.52;;;3.00;99.90;;;;;;6314976;22;20413;-94
2021/04/25 01:57:04;;;;;;;33.55;16.92;;;2.90;99.90;;;;;;6308016;22;20394;-94
2021/04/25 02:14:10;;;;;;;31.50;16.63;;;2.60;99.90;;;;;;6215140;23;20386;-95
2021/04/25 02:39:46;;;;;;;;;;;;;;;;;;;;;
2021/04/25 02:51:20;;;;;;;;;;;;;;;;;;;;;
2021/04/25 03:12:43;;;;;;;26.90;15.70;;;1.90;99.90;;;;;;6345458;22;20406;-96
2021/04/25 03:19:27;;;;;;;32.40;16.27;;;1.80;99.90;;;;;;6350879;22;20421;-95
2021/04/25 03:22:11;;;;;;;36.30;16.50;;;1.80;99.90;;;;;;6292815;22;20746;-96
2021/04/25 03:25:06;;;;;;;32.20;16.40;;;1.80;99.90;;;;;;6314788;22;20396;-96
2021/04/25 03:34:36;;;;;;;29.90;15.73;;;1.70;99.90;;;;;;6310838;22;20767;-94
2021/04/25 03:37:58;;;;;;;34.57;16.37;;;1.60;99.90;;;;;;6287611;22;20862;-96
2021/04/25 04:14:53;;;;;;;26.83;14.63;;;1.40;99.90;;;;;;6022696;23;20475;-96
2021/04/25 04:20:46;;;;;;;30.75;14.75;;;1.30;99.90;;;;;;6325898;22;20370;-94
2021/04/25 04:43:03;;;;;;;24.20;14.13;;;2.00;99.90;;;;;;6341772;22;20348;-93
2021/04/25 05:42:32;;;;;;;25.00;12.73;;;4.00;99.90;;;;;;6350090;22;20380;-93
2021/04/25 05:45:39;;;;;;;;;;;;;;;;;;;;;
2021/04/25 05:48:54;;;;;;;24.63;11.45;;;4.10;99.90;;;;;;6266812;23;20404;-93
2021/04/25 06:45:34;;;;;;;13.40;6.95;;;16.60;52.00;;;;;;6344931;22;20393;-96
2021/04/25 06:48:52;;;;;;;15.85;7.75;;;17.40;50.70;;;;;;6303243;22;20361;-96
2021/04/25 06:58:07;;;;;;;12.90;7.47;;;16.00;52.10;;;;;;6333196;22;20874;-95
2021/04/25 07:05:46;;;;;;;;;;;;;;;;;;;;;
2021/04/25 07:12:55;;;;;;;12.52;7.10;;;14.50;53.50;;;;;;6354290;22;20374;-96
2021/04/25 07:26:17;;;;;;;15.05;6.88;;;14.30;56.40;;;;;;6293332;22;20396;-94
2021/04/25 07:29:12;;;;;;;10.95;6.47;;;13.90;58.50;;;;;;6284046;22;20368;-94
2021/04/25 07:31:48;;;;;;;13.25;7.53;;;14.60;57.80;;;;;;6292682;22;20383;-95
2021/04/25 07:34:23;;;;;;;13.63;7.67;;;13.90;56.40;;;;;;6302255;22;20380;-96
2021/04/25 07:36:54;;;;;;;13.57;7.18;;;13.40;56.90;;;;;;6270647;22;20380;-95
2021/04/25 07:39:21;;;;;;;13.27;7.60;;;13.70;59.40;;;;;;6286685;22;20414;-95
2021/04/25 07:42:03;;;;;;;15.90;8.18;;;13.30;58.30;;;;;;6285067;22;20368;-95
2021/04/25 07:48:12;;;;;;;14.93;7.63;;;12.10;59.90;;;;;;6297029;22;20363;-94
2021/04/25 07:50:39;;;;;;;16.35;8.20;;;12.30;63.70;;;;;;6284694;22;20415;-95
2021/04/25 07:53:06;;;;;;;14.52;7.47;;;12.50;60.30;;;;;;6285487;22;20446;-94
2021/04/25 07:59:20;;;;;;;13.30;7.25;;;12.20;61.60;;;;;;6287147;22;20360;-95
2021/04/25 08:01:48;;;;;;;13.05;7.70;;;11.40;63.70;;;;;;6286777;22;20373;-95
2021/04/25 08:04:16;;;;;;;17.38;7.55;;;11.00;68.50;;;;;;6284977;22;20384;-96
2021/04/25 08:06:43;;;;;;;14.15;7.00;;;11.10;67.40;;;;;;6258255;22;20391;-95
2021/04/25 08:09:12;;;;;;;13.02;7.35;;;11.00;68.00;;;;;;6260577;22;20384;-95
2021/04/25 08:11:39;;;;;;;15.90;7.53;;;11.10;68.50;;;;;;6285265;22;20384;-95
2021/04/25 08:14:06;;;;;;;13.43;7.20;;;11.60;69.70;;;;;;6286247;22;20407;-96
2021/04/25 08:16:33;;;;;;;17.10;8.05;;;12.00;67.70;;;;;;6286501;22;20380;-95
2021/04/25 08:19:02;;;;;;;14.18;7.63;;;12.60;66.60;;;;;;6263540;22;20395;-95
2021/04/25 08:21:38;;;;;;;12.20;7.07;;;12.90;63.00;;;;;;6197288;22;2351025;-95
2021/04/25 08:24:16;;;;;;;16.60;7.45;;;13.20;66.20;;;;;;6297754;22;20454;-95
2021/04/25 08:52:27;;;;;;;13.40;7.50;;;12.50;65.80;;;;;;6323695;22;20383;-96
2021/04/25 09:05:30;;;;;;;12.15;7.38;;;12.00;63.80;;;;;;6271875;22;20386;-95
2021/04/25 09:15:15;;;;;;;14.63;7.43;;;12.20;67.40;;;;;;6352336;22;20376;-95
2021/04/25 09:21:57;;;;;;;16.58;7.55;;;13.40;64.80;;;;;;6328891;22;20400;-96
2021/04/25 09:24:30;;;;;;;13.90;7.38;;;13.10;62.90;;;;;;6306588;22;20392;-92
2021/04/25 09:27:01;;;;;;;14.45;7.10;;;12.60;64.00;;;;;;6323533;22;20423;-92
2021/04/25 09:33:09;;;;;;;14.38;7.05;;;12.50;66.00;;;;;;6349689;22;20474;-94
2021/04/25 09:35:42;;;;;;;15.57;7.80;;;12.70;63.40;;;;;;6326199;22;20430;-95
2021/04/25 09:39:11;;;;;;;13.40;7.45;;;12.60;64.20;;;;;;6328107;22;20460;-94
2021/04/25 09:44:37;;;;;;;16.43;8.30;;;11.80;64.10;;;;;;6335276;22;20376;-95
2021/04/25 09:47:59;;;;;;;15.20;8.50;;;11.50;65.80;;;;;;6257959;23;20425;-95
2021/04/25 09:51:30;;;;;;;17.00;9.23;;;11.30;65.90;;;;;;6252393;23;20408;-95
2021/04/25 10:00:15;;;;;;;13.73;7.47;;;11.80;68.40;;;;;;6312759;22;20386;-95
2021/04/25 10:03:10;;;;;;;18.60;8.98;;;12.80;64.70;;;;;;6304655;22;20371;-95
2021/04/25 10:06:12;;;;;;;19.20;9.30;;;13.00;61.10;;;;;;6263732;22;20870;-94
2021/04/25 10:09:16;;;;;;;14.60;8.07;;;12.50;62.30;;;;;;6184490;23;20388;-95
2021/04/25 10:12:03;;;;;;;18.83;8.40;;;12.70;64.50;;;;;;6198365;23;20391;-95
2021/04/25 10:14:46;;;;;;;14.45;7.60;;;12.90;63.00;;;;;;6207019;23;20403;-96
2021/04/25 10:17:35;;;;;;;14.43;7.53;;;13.30;62.80;;;;;;6200961;23;20384;-93
2021/04/25 10:20:11;;;;;;;15.55;7.50;;;14.00;59.70;;;;;;6173129;23;20392;-93
2021/04/25 10:32:57;;;;;;;14.27;8.00;;;12.60;62.00;;;;;;6301390;22;20389;-93
2021/04/25 10:35:33;;;;;;;13.05;6.82;;;12.60;63.50;;;;;;6328577;22;20403;-95
2021/04/25 10:38:41;;;;;;;13.32;7.20;;;12.50;61.50;;;;;;6329531;22;20365;-95
2021/04/25 10:41:34;;;;;;;14.90;7.60;;;12.20;61.30;;;;;;6331740;22;20372;-94
2021/04/25 10:44:06;;;;;;;14.93;7.68;;;12.10;66.40;;;;;;6330912;22;20385;-93
2021/04/25 10:46:53;;;;;;;14.30;6.90;;;12.20;65.00;;;;;;6357070;22;20802;-94
2021/04/25 10:49:40;;;;;;;13.40;7.00;;;12.30;65.00;;;;;;6324016;22;20394;-94
2021/04/25 10:52:29;;;;;;;13.50;7.20;;;12.70;61.80;;;;;;6301290;22;20461;-93
2021/04/25 10:55:21;;;;;;;13.75;7.32;;;13.20;62.40;;;;;;6316704;22;20387;-95
2021/04/25 11:00:51;;;;;;;11.48;6.55;;;13.00;61.30;;;;;;6299140;22;20508;-93
2021/04/25 11:08:56;;;;;;;13.25;7.28;;;13.90;61.90;;;;;;6288027;22;20368;-96
2021/04/25 11:11:40;;;;;;;13.40;6.50;;;14.00;59.30;;;;;;6292350;22;20447;-96
2021/04/25 11:36:50;;;;;;;;;;;;;;;;;;;;;
2021/04/25 12:04:42;;;;;;;12.30;5.85;;;14.50;59.50;;;;;;6335505;22;21838;-96
2021/04/25 12:07:42;;;;;;;10.45;5.55;;;14.20;63.50;;;;;;6305534;22;20364;-94
2021/04/25 12:10:54;;;;;;;;;;;;;;;;;;;;;
2021/04/25 12:32:36;;;;;;;12.30;6.00;;;14.60;55.60;;;;;;6044434;23;20447;-94
2021/04/25 12:51:15;;;;;;;12.65;6.63;;;13.20;62.30;;;;;;6311514;22;20358;-95
2021/04/25 12:54:04;;;;;;;14.93;6.00;;;12.80;65.40;;;;;;6311501;22;20478;-94
2021/04/25 13:00:27;;;;;;;13.63;5.88;;;14.50;59.50;;;;;;6313664;22;20443;-94
2021/04/25 13:02:55;;;;;;;9.68;5.32;;;15.60;62.50;;;;;;6312382;22;20428;-92
2021/04/25 13:09:15;;;;;;;14.43;5.75;;;18.30;51.50;;;;;;6312407;22;20386;-91
2021/04/25 13:11:42;;;;;;;12.05;5.75;;;17.50;50.70;;;;;;6283901;22;20382;-88
2021/04/25 13:14:13;;;;;;;10.13;5.32;;;16.80;53.50;;;;;;6284006;22;20756;-88
2021/04/25 13:16:41;;;;;;;10.90;6.10;;;16.20;54.80;;;;;;6318633;22;20378;-89
2021/04/25 13:19:26;;;;;;;11.10;6.03;;;15.70;56.70;;;;;;6304631;22;20383;-87
2021/04/25 13:21:55;;;;;;;11.10;6.30;;;15.10;57.80;;;;;;6261582;22;20402;-95
2021/04/25 13:24:21;;;;;;;11.25;6.03;;;14.40;58.90;;;;;;6227681;22;20446;-92
2021/04/25 13:26:48;;;;;;;11.65;6.40;;;13.70;62.20;;;;;;6252105;22;20385;-92
2021/04/25 13:29:21;;;;;;;15.05;6.70;;;13.30;64.50;;;;;;6253884;22;20394;-94
2021/04/25 13:31:50;;;;;;;11.43;6.50;;;12.60;61.40;;;;;;6252184;22;20936;-93
2021/04/25 13:34:17;;;;;;;12.02;6.40;;;12.20;65.10;;;;;;6254881;22;20388;-93
2021/04/25 13:36:50;;;;;;;16.27;6.82;;;11.90;65.60;;;;;;6253548;22;20411;-94
2021/04/25 13:39:17;;;;;;;11.77;6.63;;;11.70;69.20;;;;;;6227691;22;20467;-94
2021/04/25 13:45:31;;;;;;;13.65;6.15;;;12.10;70.50;;;;;;6282682;22;20367;-93
2021/04/25 13:47:59;;;;;;;12.00;6.40;;;13.80;66.60;;;;;;6263472;22;20411;-92
2021/04/25 13:50:26;;;;;;;11.45;5.90;;;15.30;60.10;;;;;;6260644;22;20384;-93
2021/04/25 13:52:54;;;;;;;11.23;5.57;;;16.60;59.50;;;;;;6236194;22;20499;-93
2021/04/25 13:55:29;;;;;;;13.20;5.32;;;17.40;55.80;;;;;;6265304;22;20388;-95
2021/04/25 13:58:05;;;;;;;10.68;5.53;;;18.20;52.50;;;;;;6283273;22;20384;-93
2021/04/25 14:00:33;;;;;;;10.18;5.57;;;18.70;50.50;;;;;;6254289;22;20491;-95
2021/04/25 14:03:00;;;;;;;9.97;5.43;;;17.80;50.30;;;;;;6254092;22;20380;-94
2021/04/25 14:05:28;;;;;;;10.25;5.88;;;16.80;54.50;;;;;;6252616;22;20392;-95
2021/04/25 14:07:56;;;;;;;9.77;5.30;;;16.10;55.80;;;;;;6266467;22;20751;-93
2021/04/25 14:10:26;;;;;;;12.27;6.20;;;15.60;53.70;;;;;;6282444;22;20477;-92
2021/04/25 14:12:54;;;;;;;10.53;5.83;;;15.00;56.70;;;;;;6284543;22;20381;-93
2021/04/25 14:15:22;;;;;;;11.10;5.60;;;15.20;58.50;;;;;;6280341;22;20386;-92
2021/04/25 14:26:45;;;;;;;;;;;;;;;;;;;;;
2021/04/25 14:29:54;;;;;;;12.30;5.95;;;11.50;64.50;;;;;;6172948;23;20459;-95
2021/04/25 18:15:03;;;;;;;9.93;4.50;;;6.40;71.80;;;;;;6360043;22;20384;-95
2021/04/25 18:17:57;;;;;;;10.00;4.00;;;6.10;72.10;;;;;;6301643;22;20732;-95
2021/04/25 18:33:21;;;;;;;;;;;;;;;;;;;;;
2021/04/25 18:36:24;;;;;;;;;;;;;;;;;;;;;
2021/04/25 18:39:32;;;;;;;9.90;4.07;;;5.10;79.60;;;;;;6223539;23;20386;-96
2021/04/25 18:46:05;;;;;;;10.77;4.13;;;4.80;83.10;;;;;;6130905;23;20400;-96
2021/04/25 18:52:44;;;;;;;11.57;4.50;;;4.40;86.50;;;;;;6127859;23;20396;-94
2021/04/25 18:55:16;;;;;;;8.80;4.30;;;4.30;86.00;;;;;;6128359;23;20411;-96
2021/04/25 18:58:00;;;;;;;11.40;4.68;;;4.20;88.20;;;;;;6136007;23;20418;-96
2021/04/25 19:00:46;;;;;;;8.85;4.15;;;4.20;88.60;;;;;;6150461;23;20397;-95
2021/04/25 19:03:19;;;;;;;10.40;4.60;;;4.00;90.20;;;;;;6135029;23;20399;-95
2021/04/25 19:05:58;;;;;;;11.88;4.25;;;4.00;89.50;;;;;;6139863;23;20385;-96
2021/04/25 19:08:30;;;;;;;15.20;4.43;;;4.00;90.00;;;;;;6189667;23;20389;-95
2021/04/25 19:11:16;;;;;;;13.23;4.33;;;3.90;90.00;;;;;;6190302;23;20442;-94
2021/04/25 19:13:44;;;;;;;8.33;4.20;;;3.80;90.00;;;;;;6187271;23;20408;-94
2021/04/25 19:16:13;;;;;;;9.80;4.20;;;3.90;90.50;;;;;;6185770;23;20874;-94
2021/04/25 19:18:40;;;;;;;8.13;4.20;;;3.90;91.00;;;;;;6235337;22;20380;-95
2021/04/25 19:21:09;;;;;;;7.67;4.00;;;3.80;91.10;;;;;;6313764;22;20424;-96
2021/04/25 19:23:36;;;;;;;12.43;4.85;;;3.70;91.30;;;;;;6316195;22;20476;-95
2021/04/25 19:26:13;;;;;;;10.55;4.47;;;3.70;91.70;;;;;;6319613;22;20380;-94
2021/04/25 19:28:41;;;;;;;9.48;4.57;;;3.60;91.50;;;;;;6322331;22;20376;-94
2021/04/25 19:31:12;;;;;;;10.13;4.13;;;3.60;91.80;;;;;;6316574;22;20381;-94
2021/04/25 19:33:44;;;;;;;10.43;4.20;;;3.70;92.20;;;;;;6316632;22;20400;-94
2021/04/25 19:36:14;;;;;;;11.40;4.55;;;3.50;92.40;;;;;;6320251;22;20376;-95
2021/04/25 19:38:41;;;;;;;10.02;4.72;;;3.50;92.70;;;;;;6316459;22;20837;-96
2021/04/25 19:41:09;;;;;;;7.93;4.70;;;3.40;92.50;;;;;;6316288;22;20411;-95
2021/04/25 19:43:37;;;;;;;10.13;4.63;;;3.40;92.50;;;;;;6316002;22;20380;-95
2021/04/25 19:46:07;;;;;;;13.25;4.60;;;3.50;92.10;;;;;;6318180;22;20403;-96
2021/04/25 19:48:34;;;;;;;11.73;4.80;;;3.50;91.80;;;;;;6315552;22;20381;-94
2021/04/25 19:51:04;;;;;;;9.40;4.07;;;3.60;91.90;;;;;;6328566;22;20519;-96
2021/04/25 19:53:32;;;;;;;9.80;4.30;;;3.60;91.80;;;;;;6340365;22;20365;-95
2021/04/25 19:56:02;;;;;;;9.80;4.60;;;3.50;92.10;;;;;;6339629;22;20365;-96
2021/04/25 20:02:17;;;;;;;9.77;4.10;;;3.50;91.80;;;;;;6343931;22;20735;-94
2021/04/25 20:04:46;;;;;;;10.38;4.50;;;3.40;91.80;;;;;;6318040;22;20385;-93
2021/04/25 20:14:12;;;;;;;10.68;4.50;;;3.40;91.70;;;;;;6185723;23;20412;-93
2021/04/25 20:16:44;;;;;;;10.45;4.22;;;3.40;91.90;;;;;;6187743;23;20777;-95
2021/04/25 20:19:17;;;;;;;7.53;4.10;;;3.40;91.70;;;;;;6185189;23;20419;-95
2021/04/25 20:23:03;;;;;;;8.93;4.70;;;3.30;91.70;;;;;;6185084;23;20409;-95
2021/04/25 20:25:32;;;;;;;10.10;4.20;;;3.20;91.80;;;;;;6102264;23;20404;-94
2021/04/25 20:28:04;;;;;;;8.95;4.20;;;3.20;92.20;;;;;;6128257;23;20369;-95
2021/04/25 20:30:37;;;;;;;9.02;4.40;;;3.20;91.30;;;;;;6126207;23;20897;-93
2021/04/25 20:33:07;;;;;;;9.80;4.63;;;3.20;92.30;;;;;;6129559;23;20850;-96
2021/04/25 20:35:34;;;;;;;9.65;4.65;;;3.10;91.70;;;;;;6129578;23;20412;-94
2021/04/25 20:38:30;;;;;;;10.25;5.00;;;3.00;91.90;;;;;;6137238;23;20468;-95
2021/04/25 20:41:02;;;;;;;12.50;4.40;;;3.00;92.20;;;;;;6168826;23;20414;-95
2021/04/25 21:33:40;;;;;;;10.37;4.93;;;2.40;92.60;;;;;;6326090;22;20409;-92
2021/04/25 21:36:19;;;;;;;11.70;4.72;;;2.30;93.80;;;;;;6282698;22;20424;-93
2021/04/25 21:38:55;;;;;;;9.15;4.45;;;2.40;93.00;;;;;;6283393;22;20755;-93
2021/04/25 21:41:44;;;;;;;9.50;4.63;;;2.40;93.20;;;;;;6285775;22;20383;-93
2021/04/25 21:44:47;;;;;;;;;;;;;;;;;;;;;
2021/04/25 21:59:51;;;;;;;9.82;4.68;;;2.20;93.50;;;;;;6309841;22;20427;-96
2021/04/25 22:02:21;;;;;;;11.57;4.55;;;2.30;93.30;;;;;;6314414;22;20453;-95
2021/04/25 22:04:53;;;;;;;12.57;5.13;;;2.10;93.30;;;;;;6314171;22;20388;-95
2021/04/25 22:07:51;;;;;;;10.82;4.97;;;2.10;93.50;;;;;;6314479;22;20787;-93
2021/04/25 22:10:34;;;;;;;10.38;4.70;;;2.10;93.50;;;;;;6313916;22;20381;-96
2021/04/25 22:13:19;;;;;;;12.32;4.80;;;2.00;93.50;;;;;;6316873;22;20880;-96
2021/04/25 22:16:06;;;;;;;12.07;4.80;;;2.00;93.80;;;;;;6311117;22;20388;-95
2021/04/25 22:18:45;;;;;;;10.80;4.75;;;1.90;94.40;;;;;;6313821;22;20445;-92
2021/04/25 22:21:40;;;;;;;9.77;4.75;;;1.90;94.40;;;;;;6313038;22;20532;-93
2021/04/25 22:24:45;;;;;;;;;;;;;;;;;;;;;
2021/04/25 22:27:28;;;;;;;12.75;5.57;;;1.70;94.60;;;;;;6215150;23;20372;-95
2021/04/25 22:29:54;;;;;;;11.50;5.40;;;1.70;94.90;;;;;;6189450;23;20395;-94
2021/04/25 22:32:47;;;;;;;10.38;4.70;;;1.70;94.40;;;;;;6189366;23;20391;-94
2021/04/25 22:36:36;;;;;;;13.57;5.53;;;1.70;95.00;;;;;;6192694;23;20824;-96
2021/04/25 22:46:40;;;;;;;11.80;5.30;;;1.50;96.40;;;;;;6142811;23;20416;-95
2021/04/25 22:49:08;;;;;;;10.50;5.28;;;1.20;97.10;;;;;;6125423;23;20444;-96
2021/04/25 22:51:42;;;;;;;11.60;5.50;;;1.10;97.50;;;;;;6105737;23;20890;-96
2021/04/25 22:54:27;;;;;;;13.20;5.40;;;1.10;97.80;;;;;;6137025;23;20446;-96
2021/04/25 22:56:56;;;;;;;13.10;5.97;;;1.20;97.90;;;;;;6213823;23;20392;-94
2021/04/25 22:59:24;;;;;;;10.45;5.38;;;1.20;97.90;;;;;;6212799;23;20391;-94
2021/04/25 23:02:05;;;;;;;14.43;6.15;;;1.10;98.10;;;;;;6214620;23;20391;-96
2021/04/25 23:04:49;;;;;;;12.30;5.95;;;1.20;98.20;;;;;;6215223;23;20419;-94
2021/04/25 23:07:16;;;;;;;13.87;6.27;;;1.10;98.50;;;;;;6213260;23;20387;-93
2021/04/25 23:13:29;;;;;;;13.77;6.32;;;1.10;98.90;;;;;;6300392;22;20368;-95
2021/04/25 23:16:03;;;;;;;13.38;6.55;;;1.10;98.90;;;;;;6318525;22;20380;-95
2021/04/25 23:18:32;;;;;;;12.30;6.45;;;1.10;99.30;;;;;;6315705;22;20384;-95
2021/04/25 23:21:01;;;;;;;14.02;6.40;;;1.00;99.60;;;;;;6311971;22;20381;-95
2021/04/25 23:23:30;;;;;;;11.87;6.87;;;1.00;99.60;;;;;;6312481;22;20403;-94
2021/04/25 23:25:59;;;;;;;14.38;6.30;;;1.00;99.90;;;;;;6311448;22;20380;-94
2021/04/25 23:28:37;;;;;;;11.52;6.55;;;1.10;99.90;;;;;;6311902;22;20377;-94
2021/04/25 23:46:33;;;;;;;15.18;6.30;;;1.10;99.90;;;;;;6300823;22;20428;-96
2021/04/25 23:49:21;;;;;;;11.90;5.80;;;1.10;99.90;;;;;;6237748;22;20406;-96
2021/04/25 23:52:24;;;;;;;12.93;5.68;;;1.20;99.90;;;;;;6179353;23;20410;-96
2021/04/25 23:59:29;;;;;;;10.10;5.25;;;1.30;99.90;;;;;;6328386;22;20452;-95
